createdAt,value
2018-01-08T00:00:13.754Z,9.47
2018-01-08T00:02:41.435Z,7.53
2018-01-08T00:05:08.620Z,8.83
2018-01-08T00:07:36.319Z,9.00
2018-01-08T00:10:02.711Z,8.60
2018-01-08T00:12:30.223Z,8.40
2018-01-08T00:14:56.760Z,7.77
2018-01-08T00:17:23.792Z,8.10
2018-01-08T00:19:51.146Z,8.80
2018-01-08T00:22:18.255Z,11.00
2018-01-08T00:24:44.544Z,8.23
2018-01-08T00:27:10.870Z,8.73
2018-01-08T00:29:37.152Z,8.00
2018-01-08T00:32:03.459Z,9.13
2018-01-08T00:34:29.760Z,7.67
2018-01-08T00:36:56.758Z,8.60
2018-01-08T00:39:23.040Z,8.07
2018-01-08T00:41:49.360Z,7.40
2018-01-08T00:44:15.641Z,7.57
2018-01-08T00:46:41.971Z,8.10
2018-01-08T00:49:08.260Z,7.67
2018-01-08T00:51:35.273Z,7.87
2018-01-08T00:54:01.552Z,7.77
2018-01-08T00:56:27.852Z,7.17
2018-01-08T00:58:54.136Z,7.90
2018-01-08T01:01:21.154Z,7.50
2018-01-08T01:03:47.454Z,9.20
2018-01-08T01:06:13.743Z,7.97
2018-01-08T01:08:40.026Z,7.40
2018-01-08T01:11:07.092Z,7.83
2018-01-08T01:13:33.391Z,8.77
2018-01-08T01:15:59.686Z,7.63
2018-01-08T01:18:25.991Z,9.67
2018-01-08T01:20:52.278Z,7.87
2018-01-08T01:23:18.563Z,7.57
2018-01-08T01:25:44.875Z,9.73
2018-01-08T01:28:11.184Z,7.83
2018-01-08T01:30:37.462Z,7.20
2018-01-08T01:33:03.750Z,7.70
2018-01-08T01:35:30.011Z,7.40
2018-01-08T01:37:56.277Z,8.37
2018-01-08T01:40:22.593Z,9.53
2018-01-08T01:42:48.893Z,8.70
2018-01-08T01:45:15.163Z,8.10
2018-01-08T01:47:42.221Z,9.83
2018-01-08T01:50:08.520Z,9.37
2018-01-08T01:52:35.525Z,8.17
2018-01-08T01:55:01.825Z,8.30
2018-01-08T01:57:28.103Z,8.20
2018-01-08T01:59:54.364Z,8.10
2018-01-08T02:02:20.664Z,10.30
2018-01-08T02:04:46.937Z,8.40
2018-01-08T02:07:13.266Z,10.23
2018-01-08T02:09:39.567Z,7.90
2018-01-08T02:12:05.864Z,8.77
2018-01-08T02:14:32.144Z,9.80
2018-01-08T02:16:58.442Z,9.13
2018-01-08T02:19:24.756Z,9.03
2018-01-08T02:21:51.040Z,8.83
2018-01-08T02:24:17.372Z,7.80
2018-01-08T02:26:44.424Z,8.77
2018-01-08T02:29:10.707Z,8.33
2018-01-08T02:31:37.023Z,7.90
2018-01-08T02:34:03.299Z,9.23
2018-01-08T02:36:29.566Z,9.30
2018-01-08T02:38:56.616Z,8.60
2018-01-08T02:41:22.900Z,9.17
2018-01-08T02:43:49.923Z,8.30
2018-01-08T02:46:16.234Z,8.97
2018-01-08T02:48:42.524Z,8.40
2018-01-08T02:51:08.814Z,8.77
2018-01-08T02:53:35.114Z,9.73
2018-01-08T02:56:01.403Z,9.83
2018-01-08T02:58:27.689Z,11.30
2018-01-08T03:00:54.009Z,11.80
2018-01-08T03:03:20.289Z,9.40
2018-01-08T03:05:47.302Z,9.57
2018-01-08T03:08:14.363Z,9.00
2018-01-08T03:10:40.667Z,10.70
2018-01-08T03:13:07.715Z,10.10
2018-01-08T03:15:34.043Z,9.07
2018-01-08T03:18:00.321Z,12.13
2018-01-08T03:20:26.598Z,10.20
2018-01-08T03:22:52.898Z,10.17
2018-01-08T03:25:19.158Z,9.87
2018-01-08T03:27:45.430Z,10.50
2018-01-08T03:30:11.739Z,11.40
2018-01-08T03:32:38.011Z,10.80
2018-01-08T03:35:04.274Z,12.10
2018-01-08T03:37:30.595Z,17.43
2018-01-08T03:39:56.876Z,11.53
2018-01-08T03:42:24.041Z,11.73
2018-01-08T03:44:50.339Z,11.87
2018-01-08T03:47:16.634Z,11.63
2018-01-08T03:49:42.911Z,14.23
2018-01-08T03:52:09.944Z,18.73
2018-01-08T03:54:36.968Z,14.87
2018-01-08T03:57:03.262Z,12.10
2018-01-08T03:59:29.552Z,11.57
2018-01-08T04:01:55.838Z,12.60
2018-01-08T04:04:22.124Z,12.00
2018-01-08T04:06:48.426Z,13.47
2018-01-08T04:09:14.713Z,13.00
2018-01-08T04:11:41.029Z,13.07
2018-01-08T04:14:07.323Z,13.20
2018-01-08T04:16:33.594Z,12.80
2018-01-08T04:18:59.874Z,13.43
2018-01-08T04:21:26.192Z,15.13
2018-01-08T04:23:52.506Z,15.13
2018-01-08T04:26:18.838Z,15.90
2018-01-08T04:28:45.135Z,13.43
2018-01-08T04:31:11.425Z,14.53
2018-01-08T04:33:37.716Z,15.10
2018-01-08T04:36:03.999Z,12.67
2018-01-08T04:38:30.258Z,13.20
2018-01-08T04:40:57.401Z,13.70
2018-01-08T04:43:24.437Z,13.00
2018-01-08T04:45:51.466Z,16.07
2018-01-08T04:48:17.765Z,14.03
2018-01-08T04:50:44.066Z,13.83
2018-01-08T04:53:10.330Z,14.07
2018-01-08T04:55:36.598Z,16.13
2018-01-08T04:58:02.923Z,15.40
2018-01-08T05:00:29.207Z,21.53
2018-01-08T05:02:55.480Z,15.83
2018-01-08T05:05:21.806Z,20.53
2018-01-08T05:07:48.099Z,15.67
2018-01-08T05:10:15.129Z,31.40
2018-01-08T05:12:42.177Z,34.37
2018-01-08T05:15:08.466Z,25.73
2018-01-08T05:17:35.481Z,22.07
2018-01-08T05:20:01.783Z,18.80
2018-01-08T05:22:28.058Z,17.37
2018-01-08T05:24:54.310Z,22.73
2018-01-08T05:27:20.611Z,21.77
2018-01-08T05:29:46.882Z,19.77
2018-01-08T05:32:13.931Z,20.83
2018-01-08T05:34:40.237Z,19.93
2018-01-08T05:37:07.652Z,23.67
2018-01-08T05:39:33.936Z,24.70
2018-01-08T05:42:00.238Z,22.27
2018-01-08T05:44:26.522Z,21.50
2018-01-08T05:46:53.589Z,20.63
2018-01-08T05:49:19.874Z,20.47
2018-01-08T05:51:46.157Z,19.47
2018-01-08T05:54:12.461Z,22.23
2018-01-08T05:56:38.797Z,19.87
2018-01-08T05:59:05.451Z,20.27
2018-01-08T06:01:31.830Z,23.60
2018-01-08T06:03:58.309Z,24.73
2018-01-08T06:06:25.560Z,22.60
2018-01-08T06:08:59.907Z,26.70
2018-01-08T06:11:27.029Z,19.13
2018-01-08T06:13:59.825Z,26.97
2018-01-08T06:16:33.230Z,21.83
2018-01-08T06:19:04.815Z,19.47
2018-01-08T06:21:39.746Z,22.03
2018-01-08T06:24:16.393Z,21.00
2018-01-08T06:26:51.389Z,25.73
2018-01-08T06:29:30.719Z,23.70
2018-01-08T06:32:06.543Z,27.93
2018-01-08T06:34:42.705Z,26.77
2018-01-08T06:37:22.829Z,23.73
2018-01-08T06:40:00.372Z,24.47
2018-01-08T06:42:49.942Z,26.73
2018-01-08T06:45:36.352Z,24.20
2018-01-08T06:48:05.109Z,26.17
2018-01-08T06:50:32.090Z,24.63
2018-01-08T06:52:59.105Z,27.83
2018-01-08T06:55:26.259Z,28.27
2018-01-08T06:57:54.057Z,27.53
2018-01-08T07:00:21.032Z,27.10
2018-01-08T07:02:49.815Z,25.57
2018-01-08T07:05:16.804Z,25.60
2018-01-08T07:07:43.786Z,25.63
2018-01-08T07:10:10.714Z,27.17
2018-01-08T07:12:37.717Z,26.27
2018-01-08T07:15:04.686Z,25.67
2018-01-08T07:17:31.720Z,25.23
2018-01-08T07:19:58.028Z,29.87
2018-01-08T07:22:24.327Z,26.33
2018-01-08T07:24:50.619Z,28.03
2018-01-08T07:27:16.915Z,28.80
2018-01-08T07:29:43.258Z,28.37
2018-01-08T07:32:09.565Z,25.93
2018-01-08T07:34:35.850Z,30.57
2018-01-08T07:37:02.881Z,36.77
2018-01-08T07:39:29.925Z,29.40
2018-01-08T07:41:56.222Z,27.10
2018-01-08T07:44:23.230Z,23.13
2018-01-08T07:46:49.568Z,28.77
2018-01-08T07:49:15.834Z,25.03
2018-01-08T07:51:42.099Z,26.33
2018-01-08T07:54:09.138Z,27.17
2018-01-08T07:56:36.175Z,25.53
2018-01-08T07:59:03.175Z,25.00
2018-01-08T08:01:29.491Z,25.37
2018-01-08T08:03:55.766Z,25.47
2018-01-08T08:06:22.139Z,23.93
2018-01-08T08:08:48.496Z,24.40
2018-01-08T08:11:24.394Z,26.43
2018-01-08T08:13:59.866Z,25.93
2018-01-08T08:16:26.907Z,22.77
2018-01-08T08:18:54.188Z,26.17
2018-01-08T08:21:23.600Z,26.57
2018-01-08T08:23:50.973Z,25.97
2018-01-08T08:26:18.633Z,28.20
2018-01-08T08:28:46.190Z,25.57
2018-01-08T08:31:12.967Z,24.93
2018-01-08T08:33:39.878Z,28.07
2018-01-08T08:36:06.970Z,27.10
2018-01-08T08:38:33.261Z,28.40
2018-01-08T08:41:00.180Z,29.00
2018-01-08T08:43:28.330Z,23.73
2018-01-08T08:45:58.966Z,23.13
2018-01-08T08:48:32.502Z,24.47
2018-01-08T08:51:08.837Z,24.90
2018-01-08T08:53:45.858Z,23.10
2018-01-08T08:56:21.356Z,24.60
2018-01-08T08:58:59.025Z,26.20
2018-01-08T09:01:31.904Z,25.37
2018-01-08T09:04:05.818Z,25.70
2018-01-08T09:06:41.276Z,26.33
2018-01-08T09:09:17.625Z,22.93
2018-01-08T09:11:54.477Z,24.67
2018-01-08T09:14:32.227Z,23.53
2018-01-08T09:17:06.263Z,28.20
2018-01-08T09:22:23.287Z,21.10
2018-01-08T09:24:58.052Z,25.40
2018-01-08T09:27:36.136Z,27.40
2018-01-08T09:30:08.298Z,21.63
2018-01-08T09:32:44.992Z,24.17
2018-01-08T09:35:19.481Z,26.90
2018-01-08T09:37:56.827Z,22.30
2018-01-08T09:40:31.816Z,22.03
2018-01-08T09:43:05.008Z,21.57
2018-01-08T09:45:39.085Z,27.60
2018-01-08T09:48:10.571Z,27.37
2018-01-08T09:50:45.462Z,22.00
2018-01-08T09:53:21.085Z,21.87
2018-01-08T09:55:50.113Z,20.83
2018-01-08T09:58:19.363Z,23.13
2018-01-08T10:00:52.185Z,23.37
2018-01-08T10:03:32.284Z,20.60
2018-01-08T10:06:12.453Z,23.43
2018-01-08T10:08:52.237Z,22.47
2018-01-08T10:11:31.354Z,22.37
2018-01-08T10:14:10.501Z,20.37
2018-01-08T10:16:49.040Z,21.00
2018-01-08T10:19:29.871Z,25.57
2018-01-08T10:21:56.483Z,23.17
2018-01-08T10:24:25.664Z,22.37
2018-01-08T10:26:55.713Z,21.43
2018-01-08T10:29:25.002Z,28.53
2018-01-08T10:31:56.616Z,21.90
2018-01-08T10:34:24.392Z,20.13
2018-01-08T10:36:52.398Z,25.30
2018-01-08T10:39:19.751Z,22.80
2018-01-08T10:41:53.288Z,17.80
2018-01-08T10:44:25.512Z,21.53
2018-01-08T10:46:58.190Z,20.53
2018-01-08T10:49:31.722Z,23.27
2018-01-08T10:51:58.327Z,19.90
2018-01-08T10:57:35.493Z,17.47
2018-01-08T11:00:04.418Z,17.10
2018-01-08T11:02:38.283Z,19.10
2018-01-08T11:05:07.468Z,19.97
2018-01-08T11:07:35.867Z,20.70
2018-01-08T11:10:05.372Z,18.53
2018-01-08T11:12:34.388Z,16.90
2018-01-08T11:15:02.029Z,18.40
2018-01-08T11:17:30.881Z,15.07
2018-01-08T11:20:00.704Z,17.93
2018-01-08T11:22:31.691Z,18.13
2018-01-08T11:25:01.280Z,20.10
2018-01-08T11:27:30.498Z,20.77
2018-01-08T11:29:58.717Z,17.60
2018-01-08T11:32:27.788Z,18.80
2018-01-08T11:34:56.538Z,19.27
2018-01-08T11:37:25.643Z,20.33
2018-01-08T11:39:56.193Z,21.23
2018-01-08T11:42:22.810Z,20.87
2018-01-08T11:44:51.477Z,22.73
2018-01-08T11:47:21.758Z,20.37
2018-01-08T11:49:51.666Z,25.10
2018-01-08T11:52:20.997Z,22.97
2018-01-08T11:54:50.886Z,27.00
2018-01-08T11:57:18.127Z,23.50
2018-01-08T11:59:46.294Z,20.13
2018-01-08T12:02:13.837Z,18.50
2018-01-08T12:04:43.221Z,22.00
2018-01-08T12:07:10.129Z,21.33
2018-01-08T12:09:37.313Z,20.10
2018-01-08T12:12:04.824Z,18.20
2018-01-08T12:14:34.416Z,19.57
2018-01-08T12:17:01.109Z,22.57
2018-01-08T12:19:28.159Z,23.20
2018-01-08T12:21:55.279Z,24.30
2018-01-08T12:24:22.222Z,18.37
2018-01-08T12:26:49.925Z,18.53
2018-01-08T12:29:16.983Z,18.20
2018-01-08T12:31:44.078Z,20.27
2018-01-08T12:34:10.993Z,18.57
2018-01-08T12:36:38.296Z,20.50
2018-01-08T12:39:06.742Z,19.10
2018-01-08T12:41:36.277Z,18.97
2018-01-08T12:44:05.159Z,19.50
2018-01-08T12:46:31.894Z,16.40
2018-01-08T12:48:58.876Z,17.17
2018-01-08T12:51:26.615Z,18.63
2018-01-08T12:53:54.821Z,20.13
2018-01-08T12:56:21.815Z,19.73
2018-01-08T12:58:49.032Z,19.53
2018-01-08T13:01:16.143Z,21.13
2018-01-08T13:03:42.450Z,17.50
2018-01-08T13:06:09.101Z,18.67
2018-01-08T13:08:35.774Z,17.83
2018-01-08T13:11:02.499Z,17.53
2018-01-08T13:13:29.574Z,18.07
2018-01-08T13:15:56.686Z,20.50
2018-01-08T13:18:23.769Z,19.47
2018-01-08T13:20:51.953Z,17.00
2018-01-08T13:23:18.895Z,18.67
2018-01-08T13:25:45.658Z,18.50
2018-01-08T13:28:12.302Z,19.70
2018-01-08T13:30:38.602Z,15.73
2018-01-08T13:33:05.411Z,17.03
2018-01-08T13:35:32.088Z,20.43
2018-01-08T13:37:59.200Z,20.47
2018-01-08T13:40:25.562Z,18.43
2018-01-08T13:42:52.115Z,22.57
2018-01-08T13:45:18.762Z,23.30
2018-01-08T13:47:45.460Z,25.17
2018-01-08T13:50:11.853Z,17.80
2018-01-08T13:52:38.226Z,19.63
2018-01-08T13:55:05.340Z,16.70
2018-01-08T13:57:32.730Z,17.03
2018-01-08T13:59:59.112Z,20.63
2018-01-08T14:02:25.571Z,17.47
2018-01-08T14:04:51.934Z,19.60
2018-01-08T14:07:18.312Z,17.63
2018-01-08T14:09:44.809Z,20.53
2018-01-08T14:12:11.186Z,18.13
2018-01-08T14:14:38.171Z,17.83
2018-01-08T14:17:04.462Z,15.43
2018-01-08T14:19:32.172Z,18.87
2018-01-08T14:21:59.071Z,16.27
2018-01-08T14:24:25.886Z,17.00
2018-01-08T14:26:52.866Z,17.27
2018-01-08T14:29:19.190Z,17.43
2018-01-08T14:31:45.755Z,22.37
2018-01-08T14:34:12.156Z,15.90
2018-01-08T14:36:39.768Z,15.30
2018-01-08T14:39:06.450Z,17.07
2018-01-08T14:41:33.273Z,17.50
2018-01-08T14:43:59.762Z,18.67
2018-01-08T14:46:26.452Z,17.23
2018-01-08T14:48:53.108Z,15.67
2018-01-08T14:51:19.672Z,20.17
2018-01-08T14:53:45.974Z,18.43
2018-01-08T14:56:12.302Z,16.67
2018-01-08T14:58:38.645Z,23.67
2018-01-08T15:01:05.782Z,19.20
2018-01-08T15:03:32.789Z,15.60
2018-01-08T15:05:59.184Z,17.93
2018-01-08T15:08:25.517Z,18.10
2018-01-08T15:10:52.208Z,18.57
2018-01-08T15:13:19.014Z,19.23
2018-01-08T15:15:45.778Z,18.33
2018-01-08T15:18:12.137Z,19.13
2018-01-08T15:20:39.097Z,22.17
2018-01-08T15:23:06.035Z,16.80
2018-01-08T15:25:32.379Z,19.13
2018-01-08T15:28:00.790Z,13.73
2018-01-08T15:30:27.063Z,17.33
2018-01-08T15:32:53.369Z,18.23
2018-01-08T15:35:20.838Z,14.77
2018-01-08T15:37:47.155Z,17.20
2018-01-08T15:40:13.909Z,15.23
2018-01-08T15:42:40.959Z,17.03
2018-01-08T15:45:07.486Z,17.27
2018-01-08T15:47:34.618Z,15.67
2018-01-08T15:50:00.913Z,18.60
2018-01-08T15:52:27.391Z,18.53
2018-01-08T15:54:54.668Z,17.50
2018-01-08T15:57:21.603Z,13.90
2018-01-08T15:59:47.877Z,15.60
2018-01-08T16:02:14.514Z,15.40
2018-01-08T16:04:41.621Z,14.80
2018-01-08T16:07:09.174Z,15.30
2018-01-08T16:09:35.837Z,14.10
2018-01-08T16:12:02.463Z,16.53
2018-01-08T16:14:28.740Z,15.27
2018-01-08T16:16:55.090Z,16.20
2018-01-08T16:19:21.774Z,14.47
2018-01-08T16:21:49.667Z,16.40
2018-01-08T16:24:17.386Z,17.50
2018-01-08T16:26:44.344Z,13.90
2018-01-08T16:29:10.744Z,17.27
2018-01-08T16:31:37.046Z,14.40
2018-01-08T16:34:03.384Z,14.63
2018-01-08T16:36:30.446Z,13.90
2018-01-08T16:38:57.505Z,12.50
2018-01-08T16:41:25.503Z,14.83
2018-01-08T16:43:52.056Z,15.73
2018-01-08T16:46:18.409Z,15.93
2018-01-08T16:48:44.759Z,13.17
2018-01-08T16:51:11.046Z,13.43
2018-01-08T16:53:37.498Z,15.90
2018-01-08T16:56:04.099Z,14.13
2018-01-08T16:58:30.506Z,14.43
2018-01-08T17:00:58.087Z,17.57
2018-01-08T17:03:24.778Z,17.07
2018-01-08T17:05:52.085Z,17.07
2018-01-08T17:08:18.522Z,19.57
2018-01-08T17:10:45.628Z,17.67
2018-01-08T17:13:12.362Z,17.23
2018-01-08T17:15:38.684Z,17.90
2018-01-08T17:18:05.076Z,14.00
2018-01-08T17:20:31.365Z,19.30
2018-01-08T17:22:57.674Z,12.60
2018-01-08T17:25:23.958Z,16.67
2018-01-08T17:27:50.983Z,14.87
2018-01-08T17:30:17.295Z,15.60
2018-01-08T17:32:44.330Z,19.63
2018-01-08T17:35:10.734Z,16.70
2018-01-08T17:37:37.088Z,19.13
2018-01-08T17:40:04.238Z,15.47
2018-01-08T17:42:30.527Z,20.33
2018-01-08T17:44:57.561Z,19.57
2018-01-08T17:47:24.614Z,16.93
2018-01-08T17:49:50.895Z,20.17
2018-01-08T17:52:17.191Z,22.40
2018-01-08T17:54:43.466Z,28.60
2018-01-08T17:57:09.763Z,24.70
2018-01-08T17:59:36.849Z,29.00
2018-01-08T18:02:03.171Z,25.87
2018-01-08T18:04:29.422Z,27.37
2018-01-08T18:06:56.475Z,25.93
2018-01-08T18:09:22.730Z,24.83
2018-01-08T18:11:49.056Z,26.10
2018-01-08T18:14:15.351Z,26.37
2018-01-08T18:16:41.629Z,26.97
2018-01-08T18:19:08.004Z,22.27
2018-01-08T18:21:34.670Z,26.03
2018-01-08T18:24:01.034Z,21.17
2018-01-08T18:26:27.340Z,28.60
2018-01-08T18:28:53.674Z,23.57
2018-01-08T18:31:19.984Z,24.17
2018-01-08T18:33:46.335Z,26.77
2018-01-08T18:36:13.382Z,22.30
2018-01-08T18:38:39.727Z,25.10
2018-01-08T18:41:06.041Z,26.03
2018-01-08T18:43:32.360Z,25.07
2018-01-08T18:45:58.670Z,26.93
2018-01-08T18:48:24.998Z,26.07
2018-01-08T18:50:51.301Z,24.53
2018-01-08T18:53:18.327Z,24.57
2018-01-08T18:55:44.609Z,29.03
2018-01-08T18:58:11.787Z,28.07
2018-01-08T19:00:38.038Z,23.70
2018-01-08T19:03:04.334Z,27.47
2018-01-08T19:05:30.625Z,26.53
2018-01-08T19:07:56.920Z,27.10
2018-01-08T19:10:23.202Z,27.73
2018-01-08T19:12:49.633Z,25.67
2018-01-08T19:15:15.975Z,23.57
2018-01-08T19:17:42.291Z,27.10
2018-01-08T19:20:08.714Z,25.23
2018-01-08T19:22:35.155Z,28.60
2018-01-08T19:25:01.426Z,29.17
2018-01-08T19:27:28.523Z,24.93
2018-01-08T19:29:54.811Z,27.47
2018-01-08T19:32:21.106Z,24.67
2018-01-08T19:34:48.147Z,21.90
2018-01-08T19:37:14.411Z,25.67
2018-01-08T19:39:40.721Z,28.60
2018-01-08T19:42:07.086Z,33.90
2018-01-08T19:44:33.514Z,27.90
2018-01-08T19:47:00.079Z,26.13
2018-01-08T19:49:26.417Z,26.03
2018-01-08T19:51:52.777Z,27.60
2018-01-08T19:54:19.061Z,29.03
2018-01-08T19:56:46.117Z,26.80
2018-01-08T19:59:12.398Z,23.87
2018-01-08T20:01:39.422Z,29.77
2018-01-08T20:04:05.718Z,25.10
2018-01-08T20:06:31.994Z,27.30
2018-01-08T20:08:58.270Z,26.33
2018-01-08T20:11:24.575Z,31.70
2018-01-08T20:13:50.866Z,27.10
2018-01-08T20:16:17.166Z,24.87
2018-01-08T20:18:43.494Z,28.03
2018-01-08T20:21:09.821Z,26.80
2018-01-08T20:23:36.100Z,27.47
2018-01-08T20:26:02.420Z,22.33
2018-01-08T20:28:28.694Z,22.93
2018-01-08T20:30:54.968Z,27.63
2018-01-08T20:33:21.270Z,22.73
2018-01-08T20:35:47.582Z,27.20
2018-01-08T20:38:13.899Z,22.50
2018-01-08T20:40:40.213Z,31.70
2018-01-08T20:43:06.518Z,25.43
2018-01-08T20:45:33.656Z,28.37
2018-01-08T20:48:00.174Z,22.33
2018-01-08T20:50:26.523Z,28.30
2018-01-08T20:52:52.796Z,24.83
2018-01-08T20:55:19.885Z,25.93
2018-01-08T20:57:46.146Z,20.60
2018-01-08T21:00:13.200Z,23.53
2018-01-08T21:02:39.541Z,27.23
2018-01-08T21:05:05.900Z,25.07
2018-01-08T21:07:32.930Z,24.90
2018-01-08T21:09:59.339Z,23.67
2018-01-08T21:12:25.629Z,26.70
2018-01-08T21:14:51.876Z,23.57
2018-01-08T21:17:18.185Z,19.77
2018-01-08T21:19:44.456Z,24.53
2018-01-08T21:22:10.738Z,22.50
2018-01-08T21:24:37.785Z,23.77
2018-01-08T21:27:04.043Z,23.37
2018-01-08T21:29:30.314Z,17.73
2018-01-08T21:31:56.644Z,22.60
2018-01-08T21:34:22.974Z,22.90
2018-01-08T21:36:49.263Z,19.17
2018-01-08T21:39:15.561Z,21.73
2018-01-08T21:41:42.642Z,26.23
2018-01-08T21:44:09.456Z,30.37
2018-01-08T21:46:35.775Z,19.43
2018-01-08T21:49:02.101Z,28.40
2018-01-08T21:51:28.733Z,16.80
2018-01-08T21:53:55.317Z,13.13
2018-01-08T21:56:21.622Z,13.50
2018-01-08T21:58:47.914Z,10.47
2018-01-08T22:01:14.987Z,10.20
2018-01-08T22:03:41.263Z,12.10
2018-01-08T22:06:07.767Z,8.87
2018-01-08T22:08:34.066Z,11.87
2018-01-08T22:11:00.346Z,15.37
2018-01-08T22:13:26.606Z,9.27
2018-01-08T22:15:52.947Z,9.63
2018-01-08T22:18:19.258Z,12.17
2018-01-08T22:20:45.538Z,11.23
2018-01-08T22:23:11.834Z,8.97
2018-01-08T22:25:38.165Z,11.57
2018-01-08T22:28:04.430Z,10.77
2018-01-08T22:30:31.456Z,8.93
2018-01-08T22:32:58.277Z,9.50
2018-01-08T22:35:24.602Z,9.30
2018-01-08T22:37:50.941Z,8.83
2018-01-08T22:40:17.222Z,8.30
2018-01-08T22:42:43.492Z,11.13
2018-01-08T22:45:09.810Z,11.93
2018-01-08T22:47:36.113Z,10.77
2018-01-08T22:50:02.422Z,8.07
2018-01-08T22:52:28.748Z,7.90
2018-01-08T22:54:55.041Z,8.60
2018-01-08T22:57:22.070Z,8.77
2018-01-08T22:59:49.168Z,11.90
2018-01-08T23:02:15.602Z,9.87
2018-01-08T23:04:41.892Z,10.10
2018-01-08T23:07:08.226Z,12.67
2018-01-08T23:09:34.495Z,11.23
2018-01-08T23:12:00.791Z,9.60
2018-01-08T23:14:27.840Z,9.67
2018-01-08T23:16:54.186Z,10.93
2018-01-08T23:19:20.458Z,9.20
2018-01-08T23:21:46.754Z,10.77
2018-01-08T23:24:13.760Z,10.20
2018-01-08T23:26:40.062Z,8.20
2018-01-08T23:29:06.490Z,7.77
2018-01-08T23:31:32.761Z,10.27
2018-01-08T23:34:00.123Z,8.97
2018-01-08T23:36:26.459Z,9.83
2018-01-08T23:38:52.796Z,9.07
2018-01-08T23:41:19.041Z,9.57
2018-01-08T23:43:45.346Z,11.00
2018-01-08T23:46:11.662Z,9.07
2018-01-08T23:48:37.943Z,9.97
2018-01-08T23:51:04.253Z,11.30
2018-01-08T23:53:30.565Z,8.80
2018-01-08T23:55:56.867Z,10.33
2018-01-08T23:58:23.188Z,9.27
